Time;durP1;ratioP1;P1;durP2;ratioP2;P2;SDS_P1;SDS_P2;PMS_P1;PMS_P2;Temp;Humidity;BMP_temperature;BMP_pressure;BME280_temperature;BME280_humidity;BME280_pressure;Samples;Min_cycle;Max_cycle;Signal;HPM_P1;HPM_P2
2021/03/14 00:02:13;;;;;;;22.88;11.18;;;;;;;1.89;58.10;98397.06;10499189;28;20465;-52
2021/03/14 00:07:14;;;;;;;24.42;10.50;;;;;;;1.95;58.49;98388.84;10506826;28;20054;-61
2021/03/14 00:12:17;;;;;;;20.85;11.32;;;;;;;2.00;58.12;98402.28;10543672;28;20067;-51
2021/03/14 00:17:20;;;;;;;21.45;8.23;;;;;;;1.99;58.26;98391.09;10540531;28;20374;-53
2021/03/14 00:22:21;;;;;;;19.10;8.18;;;;;;;1.98;58.40;98386.84;10539260;28;20052;-50
2021/03/14 00:27:23;;;;;;;19.98;8.15;;;;;;;1.99;58.22;98393.69;10539755;28;20043;-52
2021/03/14 00:32:26;;;;;;;18.33;8.32;;;;;;;1.90;58.49;98383.16;10539502;28;20066;-53
2021/03/14 00:37:28;;;;;;;20.40;9.90;;;;;;;1.95;58.10;98381.06;10539268;28;20048;-52
2021/03/14 00:42:29;;;;;;;23.52;9.43;;;;;;;2.01;57.86;98380.63;10545948;28;20059;-50
2021/03/14 00:47:32;;;;;;;19.92;8.55;;;;;;;2.07;58.01;98375.00;10545970;28;20044;-52
2021/03/14 00:52:34;;;;;;;21.20;8.88;;;;;;;2.02;57.93;98369.31;10545849;28;20051;-54
2021/03/14 00:57:37;;;;;;;19.60;7.67;;;;;;;1.99;58.26;98361.75;10547698;28;20056;-52
2021/03/14 01:02:39;;;;;;;19.75;8.48;;;;;;;1.92;58.20;98355.38;10545458;28;20496;-53
2021/03/14 01:07:41;;;;;;;17.52;8.20;;;;;;;1.92;58.68;98352.78;10544099;28;20048;-52
2021/03/14 01:12:44;;;;;;;18.67;9.05;;;;;;;1.88;58.28;98335.78;10546584;28;20555;-57
2021/03/14 01:17:55;;;;;;;13.60;4.10;;;;;;;1.93;58.68;98336.28;10550406;28;20048;-52
2021/03/14 01:22:57;;;;;;;16.45;7.97;;;;;;;1.89;58.40;98332.28;10546849;28;20052;-52
2021/03/14 01:27:58;;;;;;;26.17;9.88;;;;;;;1.97;58.09;98338.56;10544972;28;20542;-54
2021/03/14 01:33:01;;;;;;;21.13;10.50;;;;;;;1.96;58.41;98359.38;10544612;28;20055;-52
2021/03/14 01:38:02;;;;;;;17.20;7.20;;;;;;;1.97;58.69;98355.84;10544151;28;20044;-53
2021/03/14 01:43:04;;;;;;;21.98;8.02;;;;;;;1.86;58.31;98361.00;10543004;28;20448;-50
2021/03/14 01:48:08;;;;;;;18.58;7.95;;;;;;;1.87;58.51;98373.81;10543915;28;20048;-49
2021/03/14 01:53:10;;;;;;;16.25;8.48;;;;;;;1.93;58.58;98380.34;10542707;28;20043;-53
2021/03/14 01:58:12;;;;;;;11.38;4.88;;;;;;;1.94;58.27;98384.56;10545051;28;20047;-58
2021/03/14 02:03:14;;;;;;;20.55;8.73;;;;;;;1.94;58.35;98380.25;10546194;28;20361;-54
2021/03/14 02:08:16;;;;;;;20.73;8.98;;;;;;;2.01;58.27;98376.28;10546418;28;20147;-51
2021/03/14 02:13:28;;;;;;;12.75;6.07;;;;;;;2.05;58.49;98382.06;10548140;28;20108;-49
2021/03/14 02:18:31;;;;;;;20.35;8.23;;;;;;;2.05;57.90;98371.69;10543350;28;20040;-53
2021/03/14 02:23:42;;;;;;;20.50;8.45;;;;;;;2.01;58.57;98380.63;10542910;28;20492;-53
2021/03/14 02:28:47;;;;;;;17.38;9.15;;;;;;;2.01;58.42;98380.63;10542822;28;20040;-51
2021/03/14 02:33:53;;;;;;;19.05;8.63;;;;;;;2.05;58.18;98377.69;10541539;28;20036;-51
2021/03/14 02:38:55;;;;;;;22.27;9.02;;;;;;;1.98;58.76;98367.91;10542004;28;20056;-50
2021/03/14 02:43:58;;;;;;;14.98;7.55;;;;;;;2.04;58.43;98370.88;10540440;28;20040;-52
2021/03/14 02:49:02;;;;;;;23.25;7.72;;;;;;;2.09;58.37;98362.75;10540859;28;20047;-53
2021/03/14 02:54:04;;;;;;;15.20;7.40;;;;;;;2.11;58.35;98360.88;10541696;28;20048;-54
2021/03/14 02:59:07;;;;;;;19.88;8.13;;;;;;;2.14;57.97;98352.06;10541156;28;20298;-50
2021/03/14 03:04:09;;;;;;;16.35;6.95;;;;;;;2.06;58.54;98344.81;10540000;28;20070;-53
2021/03/14 03:09:12;;;;;;;24.13;10.25;;;;;;;1.96;58.88;98346.44;10541457;28;20068;-50
2021/03/14 03:14:17;;;;;;;22.53;8.80;;;;;;;1.83;59.25;98352.50;10540593;28;20048;-53
2021/03/14 03:19:21;;;;;;;19.90;8.90;;;;;;;1.77;59.87;98342.56;10540869;28;20048;-50
2021/03/14 03:24:23;;;;;;;22.48;8.73;;;;;;;1.63;60.37;98329.75;10539556;28;20048;-51
2021/03/14 03:29:26;;;;;;;30.35;10.98;;;;;;;1.59;61.00;98318.78;10543130;28;20059;-49
2021/03/14 03:34:28;;;;;;;20.13;9.07;;;;;;;1.68;60.32;98312.13;10541034;28;20048;-52
2021/03/14 03:39:30;;;;;;;17.23;6.35;;;;;;;1.76;60.36;98316.78;10538736;28;20044;-53
2021/03/14 03:44:35;;;;;;;18.58;8.65;;;;;;;1.73;61.08;98310.03;10500817;28;20040;-62
2021/03/14 03:49:39;;;;;;;18.13;7.10;;;;;;;1.76;61.13;98309.81;10505048;28;20063;-52
2021/03/14 03:54:41;;;;;;;21.92;9.00;;;;;;;1.78;61.33;98307.09;10501988;28;20055;-60
2021/03/14 03:59:44;;;;;;;22.58;9.52;;;;;;;1.87;60.59;98303.03;10504342;28;20075;-56
2021/03/14 04:04:46;;;;;;;16.13;7.20;;;;;;;1.91;60.57;98302.72;10500340;28;20067;-52
2021/03/14 04:09:48;;;;;;;18.23;7.32;;;;;;;1.89;61.02;98303.75;10498903;28;20041;-52
2021/03/14 04:14:51;;;;;;;22.55;8.43;;;;;;;1.85;61.15;98303.16;10500706;28;20102;-54
2021/03/14 04:19:56;;;;;;;19.83;8.27;;;;;;;1.88;61.31;98291.72;10529588;28;20052;-50
2021/03/14 04:25:01;;;;;;;22.02;7.35;;;;;;;1.84;61.36;98299.72;10547763;28;20044;-53
2021/03/14 04:30:05;;;;;;;22.40;8.77;;;;;;;1.85;61.10;98292.78;10547682;28;20043;-50
2021/03/14 04:35:08;;;;;;;15.60;6.53;;;;;;;1.88;61.53;98284.81;10545790;28;20485;-50
2021/03/14 04:40:12;;;;;;;23.83;11.47;;;;;;;1.94;61.66;98286.09;10546586;28;20108;-52
2021/03/14 04:45:15;;;;;;;;;;;;;;;1.97;61.50;98286.72;10548827;28;20044;-54
2021/03/14 04:50:20;;;;;;;20.48;8.48;;;;;;;1.97;61.13;98285.88;10548235;28;19924;-52
2021/03/14 04:55:23;;;;;;;22.40;9.18;;;;;;;1.92;61.82;98298.34;10546488;28;20469;-56
2021/03/14 05:00:27;;;;;;;21.95;8.60;;;;;;;1.91;61.93;98296.69;10548701;28;20115;-50
2021/03/14 05:05:30;;;;;;;21.30;8.77;;;;;;;1.96;61.64;98302.38;10546873;28;20067;-52
2021/03/14 05:10:33;;;;;;;15.50;7.32;;;;;;;1.95;61.95;98288.59;10546087;28;20116;-54
2021/03/14 05:15:37;;;;;;;16.63;7.22;;;;;;;1.99;62.11;98291.78;10545839;28;20063;-53
2021/03/14 05:20:39;;;;;;;21.42;8.10;;;;;;;1.98;62.70;98292.72;10547878;28;20059;-51
2021/03/14 05:25:43;;;;;;;15.75;6.57;;;;;;;1.95;62.33;98291.19;10546499;28;20040;-52
2021/03/14 05:30:46;;;;;;;14.07;5.82;;;;;;;1.95;62.35;98295.53;10544387;28;20048;-52
2021/03/14 05:35:47;;;;;;;12.82;5.60;;;;;;;1.96;62.45;98292.81;10544966;28;20414;-54
2021/03/14 05:40:49;;;;;;;18.50;5.28;;;;;;;1.95;62.39;98292.97;10542651;28;20396;-54
2021/03/14 05:45:52;;;;;;;17.25;7.68;;;;;;;1.99;62.98;98294.38;10536109;28;20047;-49
2021/03/14 05:50:53;;;;;;;13.55;4.28;;;;;;;2.06;62.49;98301.63;10508625;28;20400;-51
2021/03/14 05:55:55;;;;;;;37.75;9.05;;;;;;;2.13;62.31;98306.34;10505226;28;20045;-51
2021/03/14 06:00:58;;;;;;;17.83;7.88;;;;;;;2.17;62.46;98303.41;10501613;28;20143;-52
2021/03/14 06:06:00;;;;;;;22.35;8.48;;;;;;;2.22;62.42;98303.09;10501337;28;20045;-61
2021/03/14 06:11:03;;;;;;;10.70;5.50;;;;;;;2.37;62.74;98308.88;10503063;28;20505;-50
2021/03/14 06:16:07;;;;;;;16.35;5.85;;;;;;;2.42;62.63;98307.59;10501203;28;20048;-52
2021/03/14 06:21:19;;;;;;;21.05;8.98;;;;;;;2.52;62.48;98312.94;10522803;28;20074;-53
2021/03/14 06:26:21;;;;;;;16.23;6.78;;;;;;;2.62;62.33;98313.09;10539220;28;20040;-50
2021/03/14 06:31:25;;;;;;;22.88;8.35;;;;;;;2.65;62.45;98305.91;10510944;28;20051;-50
2021/03/14 06:36:26;;;;;;;19.33;7.85;;;;;;;2.74;62.34;98315.59;10509621;28;20384;-52
2021/03/14 06:41:28;;;;;;;26.77;9.65;;;;;;;2.76;62.72;98303.31;10507206;28;20044;-49
2021/03/14 06:46:32;;;;;;;22.02;9.77;;;;;;;2.82;62.68;98314.19;10502342;28;20114;-52
2021/03/14 06:51:35;;;;;;;25.85;9.90;;;;;;;2.89;62.20;98311.00;10500109;28;20401;-52
2021/03/14 06:56:36;;;;;;;27.07;10.20;;;;;;;2.91;62.36;98313.50;10499456;28;20044;-52
2021/03/14 07:01:39;;;;;;;20.35;8.68;;;;;;;3.06;61.90;98316.69;10499033;28;20058;-52
2021/03/14 07:06:41;;;;;;;19.83;7.88;;;;;;;2.95;62.19;98312.31;10499936;28;20058;-52
2021/03/14 07:11:45;;;;;;;22.70;9.68;;;;;;;3.00;62.13;98307.59;10499339;28;20363;-50
2021/03/14 07:16:49;;;;;;;17.02;7.95;;;;;;;3.06;61.93;98309.72;10498337;28;20044;-51
2021/03/14 07:21:58;;;;;;;16.20;6.15;;;;;;;3.15;61.78;98300.41;10539704;28;20397;-52
2021/03/14 07:27:02;;;;;;;21.63;10.15;;;;;;;3.33;61.14;98292.97;10535591;28;20074;-52
2021/03/14 07:32:07;;;;;;;21.23;9.57;;;;;;;3.37;60.91;98294.38;10538591;28;20058;-52
2021/03/14 07:37:08;;;;;;;20.77;9.45;;;;;;;3.52;60.78;98300.16;10529612;28;20110;-61
2021/03/14 07:42:11;;;;;;;29.35;9.85;;;;;;;3.67;60.52;98301.53;10499767;28;20516;-53
2021/03/14 07:47:17;;;;;;;25.38;10.52;;;;;;;3.44;60.69;98301.56;10496191;28;20048;-52
2021/03/14 07:52:25;;;;;;;21.58;9.25;;;;;;;3.56;60.77;98301.53;10505623;28;20055;-53
2021/03/14 07:57:28;;;;;;;20.80;9.10;;;;;;;3.65;61.00;98299.03;10504936;28;20137;-51
2021/03/14 08:02:31;;;;;;;26.13;9.27;;;;;;;3.65;60.95;98299.03;10537849;28;20059;-53
2021/03/14 08:07:48;;;;;;;24.27;8.85;;;;;;;3.52;60.91;98287.16;10505836;28;20056;-52
2021/03/14 08:12:50;;;;;;;21.80;9.45;;;;;;;3.63;60.62;98276.72;10503736;28;20528;-52
2021/03/14 08:17:53;;;;;;;23.08;9.30;;;;;;;3.67;60.83;98281.56;10511669;28;20101;-52
2021/03/14 08:22:55;;;;;;;;;;;;;;;3.71;60.88;98287.34;10534632;28;20056;-52
2021/03/14 08:28:01;;;;;;;;;;;;;;;3.86;60.60;98291.31;10525453;28;20391;-53
2021/03/14 08:33:27;;;;;;;27.00;9.98;;;;;;;3.88;60.34;98284.22;10542938;28;19996;-52
2021/03/14 08:38:44;;;;;;;25.52;11.30;;;;;;;3.94;62.36;98277.69;10544699;28;20091;-51
2021/03/14 08:43:48;;;;;;;26.00;11.35;;;;;;;4.30;62.68;98278.25;10546816;28;20055;-53
2021/03/14 08:48:57;;;;;;;27.52;11.68;;;;;;;4.52;64.52;98282.50;10543691;28;20044;-54
2021/03/14 08:53:59;;;;;;;23.27;9.60;;;;;;;4.56;64.26;98295.16;10543520;28;20052;-54
2021/03/14 08:59:12;;;;;;;31.75;12.77;;;;;;;4.47;65.28;98298.53;10542559;28;20067;-54
2021/03/14 09:04:21;;;;;;;30.10;13.57;;;;;;;4.63;66.28;98290.25;10539735;28;20385;-53
2021/03/14 09:09:52;;;;;;;32.30;14.32;;;;;;;4.67;66.18;98301.25;10542497;28;20065;-55
2021/03/14 09:15:14;;;;;;;28.30;11.52;;;;;;;4.59;66.66;98289.69;10537748;28;20374;-53
2021/03/14 09:20:36;;;;;;;31.10;14.75;;;;;;;4.37;66.67;98285.44;10543558;28;20101;-54
2021/03/14 09:25:38;;;;;;;20.38;9.15;;;;;;;4.42;67.20;98289.44;10543670;28;20113;-53
2021/03/14 09:30:40;;;;;;;30.00;11.43;;;;;;;4.50;66.93;98274.84;10543979;28;20058;-53
2021/03/14 09:35:44;;;;;;;32.53;13.68;;;;;;;4.61;67.80;98274.75;10543007;28;20036;-54
2021/03/14 09:40:56;;;;;;;33.53;14.38;;;;;;;4.76;67.24;98290.06;10541083;28;20476;-53
2021/03/14 09:46:00;;;;;;;33.00;14.15;;;;;;;4.98;67.29;98289.88;10540924;28;20055;-53
2021/03/14 09:51:05;;;;;;;36.20;15.10;;;;;;;5.17;66.87;98290.94;10541912;28;20051;-53
2021/03/14 09:56:08;;;;;;;38.70;15.10;;;;;;;5.20;66.71;98282.84;10540910;28;20453;-52
2021/03/14 10:01:39;;;;;;;35.78;14.88;;;;;;;5.41;66.75;98270.59;10502444;28;20121;-53
2021/03/14 10:06:43;;;;;;;36.08;13.40;;;;;;;5.44;66.48;98270.31;10541868;28;20036;-54
2021/03/14 10:11:48;;;;;;;30.90;10.93;;;;;;;5.60;66.64;98268.97;10522423;28;20567;-55
2021/03/14 10:16:51;;;;;;;28.67;13.43;;;;;;;5.40;65.78;98263.72;10497808;28;20048;-52
2021/03/14 10:21:53;;;;;;;36.42;14.73;;;;;;;5.38;65.92;98255.22;10538530;28;20154;-53
2021/03/14 10:27:12;;;;;;;34.78;14.10;;;;;;;5.43;66.39;98253.03;10539965;28;20457;-52
2021/03/14 10:32:30;;;;;;;33.55;14.38;;;;;;;5.61;66.18;98242.78;10540041;28;20114;-53
2021/03/14 10:37:36;;;;;;;36.10;12.02;;;;;;;5.73;66.29;98243.50;10539391;28;20079;-52
2021/03/14 10:42:47;;;;;;;33.67;14.82;;;;;;;5.52;66.62;98243.59;10539047;28;20079;-52
2021/03/14 10:48:00;;;;;;;31.67;12.93;;;;;;;5.71;66.82;98230.59;10517708;28;20051;-52
2021/03/14 10:53:11;;;;;;;45.17;12.55;;;;;;;5.45;66.53;98227.69;10496725;28;20118;-53
2021/03/14 10:58:14;;;;;;;33.88;13.73;;;;;;;5.22;67.61;98234.06;10495304;28;20056;-53
2021/03/14 11:03:26;;;;;;;39.03;15.77;;;;;;;5.18;67.77;98227.47;10497565;28;20040;-60
2021/03/14 11:08:49;;;;;;;42.70;15.52;;;;;;;4.98;68.20;98219.56;10498119;28;20094;-53
2021/03/14 11:13:51;;;;;;;36.35;14.80;;;;;;;4.85;68.61;98217.19;10493138;28;20106;-52
2021/03/14 11:19:18;;;;;;;44.17;17.02;;;;;;;4.75;69.01;98218.94;10511444;28;20142;-54
2021/03/14 11:24:32;;;;;;;32.00;13.02;;;;;;;4.53;68.83;98217.34;10537857;28;20048;-56
2021/03/14 11:29:34;;;;;;;37.30;13.73;;;;;;;4.37;69.06;98222.16;10538106;28;20068;-53
2021/03/14 11:34:46;;;;;;;35.22;13.65;;;;;;;4.08;69.96;98212.38;10533769;28;20048;-55
2021/03/14 11:40:17;;;;;;;37.50;15.13;;;;;;;4.11;70.01;98206.94;10482099;28;20064;-54
2021/03/14 11:45:27;;;;;;;40.10;14.40;;;;;;;4.24;69.92;98209.34;10496131;28;20432;-53
2021/03/14 11:50:29;;;;;;;29.33;12.07;;;;;;;4.27;70.25;98205.66;10496782;28;20056;-52
2021/03/14 11:55:33;;;;;;;38.15;14.27;;;;;;;4.27;70.02;98221.28;10494371;28;20435;-54
2021/03/14 12:00:34;;;;;;;27.10;11.35;;;;;;;4.24;70.54;98213.72;10496984;28;20052;-53
2021/03/14 12:05:36;;;;;;;33.47;12.68;;;;;;;4.30;70.86;98210.63;10497903;28;20485;-55
2021/03/14 12:10:54;;;;;;;32.40;12.70;;;;;;;4.43;70.66;98200.81;10498613;28;20151;-54
2021/03/14 12:16:01;;;;;;;32.75;13.90;;;;;;;4.51;70.93;98203.63;10496617;28;20531;-54
2021/03/14 12:21:03;;;;;;;44.35;16.27;;;;;;;4.48;70.90;98203.06;10530461;28;20060;-54
2021/03/14 12:26:14;;;;;;;40.85;16.58;;;;;;;4.64;71.21;98194.78;10535360;28;20472;-54
2021/03/14 12:31:20;;;;;;;44.97;17.15;;;;;;;4.61;71.28;98188.06;10535749;28;20112;-54
2021/03/14 12:36:25;;;;;;;46.97;17.65;;;;;;;4.61;71.18;98201.88;10539413;28;20067;-54
2021/03/14 12:41:42;;;;;;;39.53;15.60;;;;;;;4.59;71.05;98185.59;10544904;28;20048;-62
2021/03/14 12:46:44;;;;;;;52.65;18.65;;;;;;;4.52;70.85;98194.03;10544611;28;20044;-54
2021/03/14 12:51:47;;;;;;;52.03;17.88;;;;;;;4.51;71.13;98182.81;10544793;28;20131;-54
2021/03/14 12:56:51;;;;;;;;;;;;;;;4.62;71.23;98184.50;10542361;28;20062;-52
2021/03/14 13:01:53;;;;;;;46.03;17.33;;;;;;;4.56;71.43;98175.44;10544937;28;19923;-53
2021/03/14 13:06:55;;;;;;;42.47;16.35;;;;;;;4.57;71.41;98177.06;10543173;28;20051;-54
2021/03/14 13:12:00;;;;;;;49.33;17.88;;;;;;;4.66;71.55;98172.06;10543271;28;20083;-54
2021/03/14 13:17:04;;;;;;;46.30;18.00;;;;;;;4.66;71.44;98174.66;10544485;28;20059;-53
2021/03/14 13:22:05;;;;;;;42.15;16.77;;;;;;;4.66;71.65;98172.06;10522635;28;20065;-58
2021/03/14 13:27:08;;;;;;;53.85;20.45;;;;;;;4.64;71.73;98171.34;10502941;28;20483;-53
2021/03/14 13:32:10;;;;;;;48.20;18.45;;;;;;;4.70;71.66;98155.22;10502924;28;20076;-53
2021/03/14 13:37:12;;;;;;;47.92;19.30;;;;;;;4.69;71.69;98158.78;10500099;28;20045;-55
2021/03/14 13:42:14;;;;;;;68.40;22.60;;;;;;;4.71;72.17;98159.44;10500643;28;20079;-54
2021/03/14 13:47:28;;;;;;;58.97;19.63;;;;;;;4.76;71.68;98157.28;10498328;28;20049;-54
2021/03/14 13:52:35;;;;;;;59.45;19.60;;;;;;;4.74;71.44;98159.19;10500367;28;20069;-53
2021/03/14 13:57:37;;;;;;;62.42;22.15;;;;;;;4.73;71.88;98152.34;10498662;28;20056;-54
2021/03/14 14:02:39;;;;;;;77.72;22.83;;;;;;;4.83;72.08;98147.97;10500068;28;20049;-53
2021/03/14 14:07:41;;;;;;;55.50;21.13;;;;;;;4.83;71.58;98146.22;10500294;28;20045;-53
2021/03/14 14:12:43;;;;;;;63.70;21.45;;;;;;;4.89;71.88;98136.22;10499248;28;20053;-54
2021/03/14 14:17:45;;;;;;;69.93;23.73;;;;;;;4.91;71.42;98129.94;10504202;28;20056;-53
2021/03/14 14:22:47;;;;;;;72.22;24.23;;;;;;;4.94;71.52;98121.03;10539706;28;20493;-53
2021/03/14 14:27:51;;;;;;;53.45;17.90;;;;;;;4.96;71.42;98116.53;10540188;28;20417;-53
2021/03/14 14:32:53;;;;;;;40.58;14.35;;;;;;;5.02;71.57;98113.38;10539853;28;20048;-54
2021/03/14 14:37:54;;;;;;;65.97;21.88;;;;;;;5.05;71.15;98108.72;10538772;28;20039;-53
2021/03/14 14:42:57;;;;;;;44.63;19.02;;;;;;;5.05;71.17;98106.13;10539701;28;20059;-52
2021/03/14 14:47:59;;;;;;;62.60;24.10;;;;;;;5.04;70.76;98106.22;10539196;28;20063;-55
2021/03/14 14:53:01;;;;;;;40.78;14.55;;;;;;;5.05;70.71;98102.69;10539085;28;20059;-52
2021/03/14 14:58:03;;;;;;;55.47;22.40;;;;;;;5.02;70.98;98093.38;10538419;28;20048;-59
2021/03/14 15:03:07;;;;;;;65.35;23.58;;;;;;;5.01;70.61;98098.69;10541249;28;20047;-55
2021/03/14 15:08:08;;;;;;;64.07;24.10;;;;;;;5.06;71.28;98105.16;10546257;28;20082;-56
2021/03/14 15:13:11;;;;;;;53.47;21.08;;;;;;;5.11;70.77;98106.50;10542132;28;20108;-53
2021/03/14 15:18:12;;;;;;;60.92;23.08;;;;;;;5.19;70.97;98104.06;10539090;28;20052;-53
2021/03/14 15:23:14;;;;;;;64.93;24.17;;;;;;;5.27;70.94;98106.81;10537770;28;20063;-59
2021/03/14 15:28:17;;;;;;;45.15;20.05;;;;;;;5.41;71.28;98105.59;10536895;28;20051;-54
2021/03/14 15:33:18;;;;;;;40.80;16.75;;;;;;;5.43;70.70;98104.50;10497504;28;20059;-55
2021/03/14 15:38:20;;;;;;;57.92;20.90;;;;;;;5.43;70.59;98101.88;10499847;28;20070;-59
2021/03/14 15:43:23;;;;;;;38.95;17.10;;;;;;;5.47;70.62;98110.25;10524945;28;20412;-52
2021/03/14 15:48:25;;;;;;;45.70;17.65;;;;;;;5.51;70.98;98104.63;10538684;28;20484;-53
2021/03/14 15:53:26;;;;;;;54.00;20.73;;;;;;;5.49;70.86;98106.56;10538722;28;20146;-54
2021/03/14 15:58:29;;;;;;;33.25;14.43;;;;;;;5.52;70.90;98110.66;10539085;28;20058;-52
2021/03/14 16:03:31;;;;;;;42.67;19.88;;;;;;;5.52;70.78;98113.28;10495282;28;20469;-52
2021/03/14 16:08:33;;;;;;;28.45;11.05;;;;;;;5.52;70.92;98115.88;10494515;28;20040;-53
2021/03/14 16:13:35;;;;;;;56.05;21.83;;;;;;;5.43;70.63;98122.72;10502641;28;20119;-51
2021/03/14 16:18:37;;;;;;;49.10;19.52;;;;;;;5.47;70.94;98112.84;10518461;28;20059;-53
2021/03/14 16:23:38;;;;;;;52.20;20.58;;;;;;;5.51;71.22;98122.88;10544620;28;20055;-53
2021/03/14 16:28:41;;;;;;;48.63;18.85;;;;;;;5.53;70.80;98122.72;10544267;28;20075;-52
2021/03/14 16:33:43;;;;;;;44.25;19.17;;;;;;;5.61;70.65;98124.66;10545572;28;20473;-53
2021/03/14 16:38:45;;;;;;;44.40;20.25;;;;;;;5.65;71.11;98133.84;10544386;28;20523;-53
2021/03/14 16:43:48;;;;;;;43.83;19.08;;;;;;;5.68;70.34;98133.56;10543984;28;20348;-52
2021/03/14 16:48:49;;;;;;;53.88;23.58;;;;;;;5.69;70.55;98132.59;10541256;28;20157;-52
2021/03/14 16:53:51;;;;;;;52.63;20.73;;;;;;;5.74;70.89;98135.63;10540686;28;20040;-54
2021/03/14 16:58:54;;;;;;;45.60;19.20;;;;;;;5.71;70.14;98130.69;10542461;28;20048;-53
2021/03/14 17:03:55;;;;;;;45.55;20.45;;;;;;;5.67;70.58;98134.53;10542843;28;20479;-52
2021/03/14 17:08:57;;;;;;;53.35;20.60;;;;;;;5.70;70.95;98136.88;10542092;28;20059;-54
2021/03/14 17:13:59;;;;;;;45.55;20.58;;;;;;;5.73;70.23;98139.19;10541445;28;20043;-53
2021/03/14 17:19:04;;;;;;;51.63;21.23;;;;;;;5.74;70.64;98140.84;10542016;28;20125;-53
2021/03/14 17:24:07;;;;;;;42.40;18.75;;;;;;;5.73;70.39;98144.41;10541704;28;20468;-52
2021/03/14 17:29:09;;;;;;;37.95;13.73;;;;;;;5.80;70.66;98153.31;10543358;28;20048;-50
2021/03/14 17:34:11;;;;;;;50.17;19.05;;;;;;;5.76;70.45;98150.19;10539416;28;20139;-52
2021/03/14 17:39:13;;;;;;;52.35;20.25;;;;;;;5.71;70.53;98151.53;10540287;28;20066;-53
2021/03/14 17:44:15;;;;;;;45.05;17.08;;;;;;;5.69;70.76;98143.84;10539504;28;20081;-52
2021/03/14 17:49:17;;;;;;;36.03;14.65;;;;;;;5.67;69.90;98139.75;10543868;28;20489;-59
2021/03/14 17:54:19;;;;;;;36.40;15.35;;;;;;;5.65;70.37;98147.69;10541320;28;20093;-53
2021/03/14 17:59:21;;;;;;;37.85;14.63;;;;;;;5.64;70.04;98145.25;10541533;28;20048;-54
2021/03/14 18:04:23;;;;;;;46.03;17.25;;;;;;;5.61;70.00;98142.91;10543378;28;20044;-60
2021/03/14 18:09:25;;;;;;;37.67;14.77;;;;;;;5.64;70.90;98159.09;10541973;28;20044;-59
2021/03/14 18:14:28;;;;;;;34.95;13.77;;;;;;;5.71;70.42;98157.56;10543422;28;20090;-52
2021/03/14 18:19:29;;;;;;;38.47;16.05;;;;;;;5.66;70.55;98158.94;10540102;28;20071;-52
2021/03/14 18:24:31;;;;;;;27.10;12.43;;;;;;;5.65;70.54;98157.31;10540802;28;20341;-52
2021/03/14 18:29:34;;;;;;;35.58;15.88;;;;;;;5.70;70.60;98157.72;10539457;28;20048;-53
2021/03/14 18:34:36;;;;;;;34.85;14.57;;;;;;;5.72;69.99;98158.41;10536418;28;20144;-54
2021/03/14 18:39:37;;;;;;;35.03;15.43;;;;;;;5.70;70.37;98155.13;10539997;28;20079;-52
2021/03/14 18:44:40;;;;;;;30.13;13.93;;;;;;;5.72;70.33;98158.41;10536827;28;20051;-52
2021/03/14 18:49:41;;;;;;;37.17;14.82;;;;;;;5.72;70.05;98168.81;10535816;28;20160;-53
2021/03/14 18:54:43;;;;;;;34.72;15.70;;;;;;;5.67;69.97;98164.03;10539006;28;20044;-52
2021/03/14 18:59:46;;;;;;;32.60;13.40;;;;;;;5.73;70.91;98167.88;10539702;28;20396;-54
2021/03/14 19:04:48;;;;;;;33.30;14.55;;;;;;;5.78;70.44;98173.50;10537386;28;20052;-52
2021/03/14 19:09:49;;;;;;;33.40;14.93;;;;;;;5.76;70.24;98170.22;10537033;28;20059;-53
2021/03/14 19:14:52;;;;;;;33.47;12.45;;;;;;;5.80;70.13;98168.97;10536324;28;20039;-52
2021/03/14 19:19:54;;;;;;;30.50;13.88;;;;;;;5.79;70.41;98175.16;10535271;28;20051;-55
2021/03/14 19:24:55;;;;;;;21.77;11.52;;;;;;;5.89;70.10;98175.16;10535029;28;20067;-52
2021/03/14 19:29:58;;;;;;;23.48;9.15;;;;;;;5.90;69.48;98177.59;10535603;28;20047;-51
2021/03/14 19:34:59;;;;;;;26.38;12.15;;;;;;;5.85;70.43;98174.59;10536080;28;20055;-52
2021/03/14 19:40:01;;;;;;;26.63;12.75;;;;;;;5.86;70.46;98176.25;10537543;28;20066;-53
2021/03/14 19:45:06;;;;;;;25.92;12.07;;;;;;;5.81;70.08;98175.81;10535810;28;20135;-53
2021/03/14 19:50:10;;;;;;;20.10;9.90;;;;;;;5.78;70.58;98181.31;10536114;28;20080;-54
2021/03/14 19:55:13;;;;;;;21.52;10.20;;;;;;;5.76;70.48;98186.69;10532328;28;20040;-52
2021/03/14 20:00:17;;;;;;;24.27;11.75;;;;;;;5.81;70.19;98186.25;10533608;28;20052;-52
2021/03/14 20:05:18;;;;;;;;;;;;;;;5.88;70.30;98187.38;10532782;28;20088;-57
2021/03/14 20:10:20;;;;;;;21.77;11.00;;;;;;;5.90;70.31;98182.00;10533823;28;20249;-52
2021/03/14 20:15:22;;;;;;;19.05;9.15;;;;;;;5.84;69.70;98193.81;10536679;28;20048;-52
2021/03/14 20:20:25;;;;;;;22.63;9.88;;;;;;;5.75;70.25;98192.84;10533745;28;20064;-52
2021/03/14 20:25:27;;;;;;;18.65;9.38;;;;;;;5.76;70.25;98180.66;10531197;28;20078;-52
2021/03/14 20:30:29;;;;;;;19.92;10.15;;;;;;;5.78;69.82;98183.91;10533616;28;20052;-53
2021/03/14 20:35:31;;;;;;;19.23;9.90;;;;;;;5.87;69.75;98182.28;10530210;28;20040;-51
2021/03/14 20:40:33;;;;;;;21.15;8.77;;;;;;;5.87;70.47;98183.09;10532656;28;20052;-57
2021/03/14 20:45:35;;;;;;;19.40;10.18;;;;;;;5.87;70.38;98180.47;10532487;28;20424;-53
2021/03/14 20:50:38;;;;;;;21.35;9.82;;;;;;;5.93;69.95;98179.16;10532306;28;20091;-53
2021/03/14 20:55:39;;;;;;;17.33;9.32;;;;;;;5.87;69.95;98172.66;10529383;28;20058;-52
2021/03/14 21:00:42;;;;;;;20.23;9.70;;;;;;;5.88;70.10;98173.47;10537212;28;20052;-54
2021/03/14 21:05:44;;;;;;;19.10;9.27;;;;;;;5.92;69.97;98172.25;10536842;28;20051;-52
2021/03/14 21:10:45;;;;;;;21.60;9.15;;;;;;;6.01;70.35;98175.84;10535930;28;20047;-51
2021/03/14 21:15:48;;;;;;;20.30;10.13;;;;;;;6.01;70.34;98174.06;10539471;28;20048;-52
2021/03/14 21:20:50;;;;;;;22.20;11.10;;;;;;;6.07;70.22;98183.13;10538072;28;20056;-51
2021/03/14 21:25:52;;;;;;;21.15;9.35;;;;;;;6.04;70.04;98172.97;10537996;28;20069;-52
2021/03/14 21:30:55;;;;;;;20.85;10.15;;;;;;;6.06;69.95;98171.03;10538342;28;20056;-51
2021/03/14 21:35:57;;;;;;;17.20;6.75;;;;;;;6.10;69.53;98173.22;10536260;28;20589;-52
2021/03/14 21:40:58;;;;;;;25.85;11.32;;;;;;;6.10;70.18;98167.19;10536827;28;20089;-51
2021/03/14 21:46:01;;;;;;;24.98;10.35;;;;;;;6.15;69.27;98170.19;10533589;28;20392;-53
2021/03/14 21:51:03;;;;;;;23.75;10.77;;;;;;;6.16;69.99;98166.63;10532445;28;20048;-52
2021/03/14 21:56:05;;;;;;;24.27;10.45;;;;;;;6.16;69.83;98171.84;10538787;28;20450;-53
2021/03/14 22:01:08;;;;;;;24.27;11.85;;;;;;;6.22;70.11;98160.84;10539471;28;20047;-53
2021/03/14 22:06:09;;;;;;;22.60;11.95;;;;;;;6.27;70.23;98163.03;10538136;28;20192;-53
2021/03/14 22:11:11;;;;;;;17.52;9.18;;;;;;;6.32;69.71;98166.06;10536560;28;20066;-53
2021/03/14 22:16:14;;;;;;;22.25;10.20;;;;;;;6.27;69.53;98163.03;10537776;28;20052;-53
2021/03/14 22:21:16;;;;;;;18.25;8.85;;;;;;;6.32;69.60;98155.59;10538309;28;20056;-53
2021/03/14 22:26:18;;;;;;;21.35;8.63;;;;;;;6.30;68.75;98147.09;10534147;28;20063;-52
2021/03/14 22:31:20;;;;;;;21.30;8.35;;;;;;;6.28;69.35;98155.06;10537178;28;20085;-52
2021/03/14 22:36:22;;;;;;;22.63;9.90;;;;;;;6.30;69.89;98158.34;10540217;28;20143;-52
2021/03/14 22:41:24;;;;;;;20.40;8.98;;;;;;;6.34;69.52;98156.28;10537334;28;20717;-54
2021/03/14 22:46:26;;;;;;;24.00;11.45;;;;;;;6.30;69.54;98147.09;10536267;28;20465;-53
2021/03/14 22:51:28;;;;;;;21.55;9.25;;;;;;;6.33;69.53;98152.84;10537597;28;20465;-50
2021/03/14 22:56:29;;;;;;;24.30;10.65;;;;;;;6.31;69.75;98151.34;10536835;28;20318;-51
2021/03/14 23:01:32;;;;;;;22.48;10.82;;;;;;;6.34;68.84;98138.84;10538396;28;20044;-52
2021/03/14 23:06:33;;;;;;;25.90;10.82;;;;;;;6.33;69.13;98137.19;10541289;28;20430;-56
2021/03/14 23:11:36;;;;;;;22.30;10.32;;;;;;;6.31;69.80;98123.47;10540971;28;20048;-60
2021/03/14 23:16:39;;;;;;;26.40;11.03;;;;;;;6.30;69.87;98129.63;10537985;28;20040;-54
2021/03/14 23:21:41;;;;;;;23.90;11.48;;;;;;;6.40;69.62;98122.63;10537377;28;20492;-52
2021/03/14 23:26:42;;;;;;;24.85;10.52;;;;;;;6.41;69.52;98123.44;10537773;28;20056;-56